Flight Track Log - Related Links

Times and Time Zones

All times are in EDT time to prevent confusion due to time zone crossing. See the SWA3853 flight status page for this flight to view local times or setup timezone preferences in your user account.

Time Position Orientation Groundspeed Altitude Reporting Facility
EDT Latitude Longitude Course Direction KTS MPH feet Rate Location/Type
Wed 12:48:32 PM 36.0833 -86.7500 253° West 230 265 3,400  Level Nashville TRACON
Wed 12:49:27 PM 36.1167 -86.8167 302° West 297 342 6,400 3,579 Climbing Nashville TRACON
Wed 12:50:26 PM 36.1500 -86.9167 292° West 313 360 10,200 3,769 Climbing Nashville TRACON
Wed 12:50:45 PM 36.1617 -86.9481 295° West 333 383 11,300 3,038 Climbing Memphis Center
Wed 12:51:45 PM 36.2044 -87.0594 295° West 356 410 14,200 3,050 Climbing Memphis Center
Wed 12:52:45 PM 36.2511 -87.1761 296° West 374 430 17,400 3,000 Climbing Memphis Center
Wed 12:53:00 PM 36.2915 -87.4145 277° West  Level FlightAware Approximate
Wed 12:53:45 PM 36.2836 -87.3086 287° West 390 449 20,200  Level Memphis Center
Wed 12:54:45 PM 36.3033 -87.4314 281° West 405 466 22,700 2,500 Climbing Memphis Center
Wed 12:55:45 PM 36.3442 -87.5717 290° West 417 480 25,200 2,150 Climbing Memphis Center
Wed 12:56:45 PM 36.4031 -87.6986 300° West 424 488 27,000 900 Climbing Memphis Center
Wed 12:57:45 PM 36.4144 -87.8453 276° West 419 482 27,000  Level Memphis Center
Wed 12:58:45 PM 36.4339 -87.9839 280° West 425 489 27,000  Level Memphis Center
Wed 12:59:45 PM 36.4781 -88.1219 292° West 425 489 27,000 800 Level Memphis Center
Wed 01:00:45 PM 36.5244 -88.2575 293° West 431 496 28,600 1,550 Climbing Memphis Center
Wed 01:01:45 PM 36.5706 -88.4011 292° West 431 496 30,100 1,600 Climbing Memphis Center
Wed 01:02:45 PM 36.6186 -88.5525 292° West 452 520 31,800 2,100 Climbing Memphis Center
Wed 01:03:45 PM 36.6622 -88.6964 291° West 452 520 34,300 2,200 Climbing Memphis Center
Wed 01:04:45 PM 36.7100 -88.8378 293° West 452 520 36,200 1,850 Climbing Memphis Center
Wed 01:05:45 PM 36.7533 -88.9792 291° West 447 514 38,000 1,350 Climbing Memphis Center
Wed 01:06:45 PM 36.7944 -89.1183 290° West 442 509 38,900 850 Climbing Memphis Center
Wed 01:07:45 PM 36.8375 -89.2603 291° West 442 509 39,700 550 Climbing Memphis Center
Wed 01:08:45 PM 36.8825 -89.4050 291° West 442 509 40,000 150 Climbing Memphis Center
Wed 01:09:45 PM 36.9250 -89.5497 290° West 447 514 40,000  Level Memphis Center
Wed 01:10:45 PM 36.9675 -89.6897 291° West 447 514 40,000  Level Memphis Center
Wed 01:11:45 PM 37.0100 -89.8347 290° West 447 514 40,000  Level Memphis Center
Wed 01:12:45 PM 37.0542 -89.9747 292° West 441 507 40,000  Level Memphis Center
Wed 01:13:45 PM 37.0942 -90.1150 290° West 441 507 40,000  Level Memphis Center
Wed 01:16:05 PM 37.1942 -90.4422 291° West 431 496 40,000  Level Kansas City Center
Wed 01:17:07 PM 37.2361 -90.5831 291° West 431 496 40,000  Level Kansas City Center
Wed 01:18:09 PM 37.2772 -90.7244 290° West 431 496 40,000  Level Kansas City Center
Wed 01:19:11 PM 37.3242 -90.8894 290° West 432 497 40,000  Level Kansas City Center
Wed 01:20:13 PM 37.3667 -91.0319 291° West 434 499 40,000  Level Kansas City Center
Wed 01:21:15 PM 37.4075 -91.1750 290° West 434 499 40,000  Level Kansas City Center
Wed 01:22:17 PM 37.4486 -91.3192 290° West 436 502 40,000  Level Kansas City Center
Wed 01:23:19 PM 37.4900 -91.4636 290° West 437 503 40,000  Level Kansas City Center
Wed 01:24:21 PM 37.5306 -91.6092 289° West 437 503 40,000  Level Kansas City Center
Wed 01:25:23 PM 37.5914 -91.7403 300° West 434 499 40,000  Level Kansas City Center
Wed 01:26:25 PM 37.6678 -91.8978 302° West 438 504 40,000  Level Kansas City Center
Wed 01:27:27 PM 37.7311 -92.0292 301° West 437 503 40,000  Level Kansas City Center
Wed 01:28:29 PM 37.7958 -92.1650 301° West 439 505 40,000  Level Kansas City Center
Wed 01:29:31 PM 37.8589 -92.2994 301° West 442 509 40,000  Level Kansas City Center
Wed 01:30:33 PM 37.9231 -92.4342 301° West 445 512 40,000 -194 Level Kansas City Center
Wed 01:31:35 PM 37.9856 -92.5667 301° West 443 510 39,600 -726 Descending Kansas City Center
Wed 01:32:37 PM 38.0489 -92.7014 301° West 444 511 38,500 -1,597 Descending Kansas City Center
Wed 01:33:39 PM 38.1175 -92.8472 301° West 445 512 36,300 -2,928 Descending Kansas City Center
Wed 01:34:42 PM 38.1806 -92.9853 300° West 449 517 32,400 -3,120 Descending Kansas City Center
Wed 01:35:44 PM 38.2456 -93.1231 301° West 451 519 29,800 -2,710 Descending Kansas City Center
Wed 01:36:46 PM 38.3206 -93.2825 301° West 439 505 26,800 -2,565 Descending Kansas City Center
Wed 01:37:48 PM 38.3794 -93.4117 300° West 424 488 24,500 -2,226 Descending Kansas City Center
Wed 01:38:50 PM 38.4353 -93.5358 300° West 408 470 22,200 -2,177 Descending Kansas City Center
Wed 01:39:52 PM 38.4892 -93.6569 300° West 396 456 20,000 -2,177 Descending Kansas City Center
Wed 01:40:54 PM 38.5506 -93.7864 301° West 383 441 17,700 -2,129 Descending Kansas City Center
Wed 01:41:56 PM 38.5992 -93.8950 300° West 371 427 15,600 -2,032 Descending Kansas City Center
Wed 01:42:58 PM 38.6467 -93.9983 301° West 356 410 13,500 -2,032 Descending Kansas City Center
Wed 01:44:00 PM 38.7089 -94.1119 305° West 349 402 11,400 -1,645 Descending Kansas City Center
Wed 01:45:02 PM 38.7803 -94.1878 320° Northwest 347 399 10,100 -1,113 Descending Kansas City Center
Wed 01:46:04 PM 38.8472 -94.2797 313° West 313 360 9,100 -1,016 Descending Kansas City Center
Wed 01:47:06 PM 38.8950 -94.3553 309° West 287 330 8,000 -629 Descending Kansas City Center
Wed 01:48:08 PM 38.9544 -94.4397 312° West 286 329 7,800 -484 Descending Kansas City Center
Wed 01:49:10 PM 39.0025 -94.5142 310° West 282 325 7,000 -919 Descending Kansas City Center
Wed 01:50:12 PM 39.0481 -94.5983 305° West 260 299 5,900 -968 Descending Kansas City Center
Wed 01:51:14 PM 39.0886 -94.6722 305° West 260 299 5,000 -774 Descending Kansas City Center
Wed 01:52:16 PM 39.1478 -94.7258 325° Northwest 268 308 4,300 -532 Descending Kansas City Center
Wed 01:53:18 PM 39.2036 -94.7342 353° North 194 223 3,900 -1,210 Descending Kansas City Center
Wed 01:54:20 PM 39.2494 -94.7194 14° North 154 177 1,800 -1,403 Descending Kansas City Center
Wed 01:55:22 PM 39.2844 -94.7097 12° North 136 157 1,000 -774 Descending Kansas City Center

Login

Don't have an account? Register now (free) for customized features, flight alerts, and more!